Time;durP1;ratioP1;P1;durP2;ratioP2;P2;SDS_P1;SDS_P2;PMS_P1;PMS_P2;Temp;Humidity;BMP_temperature;BMP_pressure;BME280_temperature;BME280_humidity;BME280_pressure;Samples;Min_cycle;Max_cycle;Signal;HPM_P1;HPM_P2
2022/03/29 05:12:03;;;;;;;;;;;;;;;9.56;38.45;98323.53;4771693;30;19962;-66
2022/03/29 05:14:31;;;;;;;;;;;;;;;9.53;39.37;98330.69;4773578;30;19947;-68
2022/03/29 05:16:58;;;;;;;;;;;;;;;9.55;38.79;98321.91;4773294;30;19955;-69
2022/03/29 05:19:25;;;;;;;;;;;;;;;9.55;38.76;98316.34;4773184;30;19985;-69
2022/03/29 05:21:53;;;;;;;;;;;;;;;9.51;39.50;98315.53;4769808;30;19951;-66
2022/03/29 05:24:20;;;;;;;;;;;;;;;9.48;38.94;98314.31;4771369;30;19958;-67
2022/03/29 05:26:47;;;;;;;;;;;;;;;9.56;38.81;98318.72;4774347;30;19945;-66
2022/03/29 05:29:17;;;;;;;;;;;;;;;9.65;39.01;98313.63;4775695;30;20011;-66
2022/03/29 05:31:45;;;;;;;;;;;;;;;9.56;38.64;98327.09;4774872;30;19980;-67
2022/03/29 05:34:13;;;;;;;;;;;;;;;9.52;38.84;98323.50;4769160;30;19955;-67
2022/03/29 05:36:44;;;;;;;;;;;;;;;9.51;39.32;98321.88;4774151;30;19950;-67
2022/03/29 05:39:13;;;;;;;;;;;;;;;9.60;40.49;98313.97;4771609;30;19951;-67
2022/03/29 05:41:41;;;;;;;;;;;;;;;9.69;40.55;98322.00;4776378;30;19951;-67
2022/03/29 05:44:09;;;;;;;;;;;;;;;9.82;40.34;98320.47;4776172;30;19959;-66
2022/03/29 05:49:22;;;;;;;;;;;;;;;9.88;40.27;98324.47;4775754;30;19971;-67
2022/03/29 05:51:52;;;;;;;;;;;;;;;9.86;40.00;98329.66;4776843;30;19961;-67
2022/03/29 05:54:19;;;;;;;;;;;;;;;9.97;40.13;98333.31;4776860;30;19961;-67
2022/03/29 05:56:46;;;;;;;;;;;;;;;10.12;40.59;98328.59;4776627;30;19954;-67
2022/03/29 05:59:14;;;;;;;;;;;;;;;10.29;40.40;98328.66;4775408;30;19957;-67
2022/03/29 06:01:42;;;;;;;;;;;;;;;10.47;39.94;98332.28;4775815;30;19946;-67
2022/03/29 06:04:10;;;;;;;;;;;;;;;10.47;40.43;98334.28;4772869;30;19948;-67
2022/03/29 06:06:39;;;;;;;;;;;;;;;10.55;40.46;98333.91;4771451;30;19957;-67
2022/03/29 06:09:06;;;;;;;;;;;;;;;10.75;40.38;98328.72;4770991;30;19960;-67
2022/03/29 06:11:34;;;;;;;;;;;;;;;11.00;38.42;98337.13;4769629;30;19975;-66
2022/03/29 06:14:02;;;;;;;;;;;;;;;11.32;38.24;98328.72;4769878;30;19958;-67
2022/03/29 06:16:30;;;;;;;;;;;;;;;11.59;38.21;98338.28;4767346;30;19962;-67
2022/03/29 06:18:57;;;;;;;;;;;;;;;11.77;39.42;98333.44;4765945;30;19951;-67
2022/03/29 06:21:24;;;;;;;;;;;;;;;11.59;40.94;98341.06;4771924;30;19961;-67
2022/03/29 06:23:52;;;;;;;;;;;;;;;11.65;43.22;98342.25;4775009;30;19956;-67
2022/03/29 06:26:19;;;;;;;;;;;;;;;12.07;43.49;98347.75;4757959;30;20389;-67
2022/03/29 06:28:47;;;;;;;;;;;;;;;12.64;43.85;98341.84;4761677;30;19963;-67
2022/03/29 06:31:14;;;;;;;;;;;;;;;13.15;43.73;98341.91;4774290;30;19971;-67
2022/03/29 06:33:43;;;;;;;;;;;;;;;12.96;40.81;98348.81;4769652;30;20546;-67
2022/03/29 06:36:11;;;;;;;;;;;;;;;13.02;42.06;98347.19;4771069;30;19951;-67
2022/03/29 06:38:39;;;;;;;;;;;;;;;12.88;43.47;98346.50;4773393;30;20293;-67
2022/03/29 06:41:06;;;;;;;;;;;;;;;12.65;44.02;98355.47;4766214;30;20237;-67
2022/03/29 06:43:35;;;;;;;;;;;;;;;11.68;48.99;98352.69;4773097;30;19950;-67
2022/03/29 06:46:03;;;;;;;;;;;;;;;12.07;48.63;98350.56;4772606;30;19955;-67
2022/03/29 06:48:31;;;;;;;;;;;;;;;11.74;49.86;98345.44;4773789;30;19959;-67
2022/03/29 06:50:58;;;;;;;;;;;;;;;11.12;53.26;98351.53;4774541;30;20237;-67
2022/03/29 06:53:25;;;;;;;;;;;;;;;10.75;58.51;98359.50;4769048;30;19958;-67
2022/03/29 06:55:53;;;;;;;;;;;;;;;10.43;59.27;98351.06;4767142;30;19956;-66
2022/03/29 06:58:20;;;;;;;;;;;;;;;10.00;62.02;98354.06;4769916;30;19954;-67
2022/03/29 07:00:48;;;;;;;;;;;;;;;9.69;66.77;98356.31;4770221;30;19963;-67
2022/03/29 07:06:50;;;;;;;;;;;;;;;9.51;77.67;98360.97;4775344;30;20263;-67
2022/03/29 07:12:06;;;;;;;;;;;;;;;9.86;80.83;98369.56;4754711;30;19974;-67
2022/03/29 07:14:34;;;;;;;;;;;;;;;9.91;86.22;98371.97;4756039;30;19959;-67
2022/03/29 07:17:05;;;;;;;;;;;;;;;10.13;88.23;98361.72;4755122;30;19964;-66
2022/03/29 07:19:32;;;;;;;;;;;;;;;9.94;91.34;98353.63;4755013;30;19957;-67
2022/03/29 07:21:59;;;;;;;;;;;;;;;9.99;92.40;98360.84;4755214;30;19955;-67
2022/03/29 07:24:27;;;;;;;;;;;;;;;10.04;95.61;98357.66;4755855;30;19954;-66
2022/03/29 07:26:54;;;;;;;;;;;;;;;9.94;98.17;98350.84;4755282;30;20181;-67
2022/03/29 07:29:22;;;;;;;;;;;;;;;9.99;100.00;98358.03;4755470;30;19975;-67
2022/03/29 07:31:49;;;;;;;;;;;;;;;9.70;100.00;98357.09;4754170;30;19980;-67
2022/03/29 07:34:16;;;;;;;;;;;;;;;10.03;100.00;98362.44;4754247;30;20327;-66
2022/03/29 07:36:44;;;;;;;;;;;;;;;9.95;100.00;98360.84;4754069;30;19938;-67
2022/03/29 07:39:11;;;;;;;;;;;;;;;9.98;100.00;98364.84;4755129;30;20232;-67
2022/03/29 07:41:38;;;;;;;;;;;;;;;9.82;100.00;98356.78;4755102;30;19930;-67
2022/03/29 07:44:06;;;;;;;;;;;;;;;9.90;100.00;98364.78;4754351;30;19930;-67
2022/03/29 07:46:33;;;;;;;;;;;;;;;9.97;100.00;98360.44;4755421;30;19972;-66
2022/03/29 07:49:01;;;;;;;;;;;;;;;9.69;100.00;98361.88;4755666;30;20278;-67
2022/03/29 07:51:48;;;;;;;;;;;;;;;9.56;100.00;98357.03;4755915;30;19983;-67
2022/03/29 07:54:16;;;;;;;;;;;;;;;9.87;100.00;98362.78;4740808;30;19974;-67
2022/03/29 07:56:43;;;;;;;;;;;;;;;10.08;100.00;98355.69;4756142;30;19930;-67
2022/03/29 07:59:10;;;;;;;;;;;;;;;9.94;100.00;98353.63;4756153;30;19991;-67
2022/03/29 08:01:37;;;;;;;;;;;;;;;10.35;100.00;98360.59;4756216;30;19973;-67
2022/03/29 08:04:05;;;;;;;;;;;;;;;9.86;100.00;98355.59;4751816;30;19951;-67
2022/03/29 08:06:32;;;;;;;;;;;;;;;10.38;100.00;98354.22;4755667;30;19961;-67
2022/03/29 08:08:59;;;;;;;;;;;;;;;10.16;100.00;98348.97;4756539;30;19980;-67
2022/03/29 08:11:28;;;;;;;;;;;;;;;10.46;100.00;98346.66;4768302;30;19982;-67
2022/03/29 08:13:56;;;;;;;;;;;;;;;10.79;100.00;98340.72;4772505;30;19954;-67
2022/03/29 08:16:23;;;;;;;;;;;;;;;10.45;100.00;98333.88;4772785;30;19993;-67
2022/03/29 08:18:51;;;;;;;;;;;;;;;10.20;100.00;98341.38;4772927;30;19959;-67
2022/03/29 08:24:04;;;;;;;;;;;;;;;10.52;100.00;98337.47;4773566;30;20239;-67
2022/03/29 08:26:33;;;;;;;;;;;;;;;10.55;100.00;98325.50;4773996;30;19947;-66
2022/03/29 08:29:00;;;;;;;;;;;;;;;10.49;100.00;98331.88;4773027;30;19952;-66
2022/03/29 08:31:28;;;;;;;;;;;;;;;10.31;100.00;98331.84;4757915;30;19948;-67
2022/03/29 08:33:55;;;;;;;;;;;;;;;10.70;100.00;98325.53;4770149;30;20405;-67
2022/03/29 08:36:23;;;;;;;;;;;;;;;10.42;100.00;98327.06;4773643;30;19965;-67
2022/03/29 08:38:50;;;;;;;;;;;;;;;10.73;100.00;98324.75;4772829;30;20377;-66
2022/03/29 08:41:18;;;;;;;;;;;;;;;10.77;100.00;98322.72;4772673;30;20253;-67
2022/03/29 08:43:46;;;;;;;;;;;;;;;11.03;100.00;98328.72;4772735;30;19958;-67
2022/03/29 08:46:13;;;;;;;;;;;;;;;11.34;100.00;98323.50;4771215;30;19952;-66
2022/03/29 08:48:41;;;;;;;;;;;;;;;11.44;100.00;98331.09;4770205;30;19988;-67
2022/03/29 08:51:08;;;;;;;;;;;;;;;11.33;100.00;98330.31;4772194;30;19964;-67
2022/03/29 08:53:55;;;;;;;;;;;;;;;11.21;100.00;98331.53;4773102;30;19957;-66
2022/03/29 08:56:23;;;;;;;;;;;;;;;11.03;100.00;98333.53;4773087;30;19954;-67
2022/03/29 08:58:50;;;;;;;;;;;;;;;10.85;100.00;98319.56;4770437;30;19956;-67
2022/03/29 09:01:21;;;;;;;;;;;;;;;10.90;100.00;98324.75;4774901;30;19966;-67
2022/03/29 09:04:04;;;;;;;;;;;;;;;11.52;100.00;98330.66;4776743;30;19957;-67
2022/03/29 09:06:31;;;;;;;;;;;;;;;11.88;100.00;98331.41;4776562;30;20277;-67
2022/03/29 09:08:59;;;;;;;;;;;;;;;11.83;100.00;98332.59;4776734;30;19959;-67
2022/03/29 09:11:38;;;;;;;;;;;;;;;11.87;100.00;98332.59;4776056;30;19985;-67
2022/03/29 09:14:05;;;;;;;;;;;;;;;12.17;100.00;98334.91;4777223;30;19954;-67
2022/03/29 09:16:38;;;;;;;;;;;;;;;12.13;100.00;98320.88;4777027;30;19955;-67
2022/03/29 09:19:06;;;;;;;;;;;;;;;12.08;100.00;98326.91;4760046;30;19955;-67
2022/03/29 09:21:41;;;;;;;;;;;;;;;11.67;100.00;98323.03;4776436;30;19961;-67
2022/03/29 09:24:10;;;;;;;;;;;;;;;11.21;100.00;98320.31;4776114;30;19952;-67
2022/03/29 09:26:40;;;;;;;;;;;;;;;11.65;100.00;98323.44;4769474;30;19949;-67
2022/03/29 09:29:15;;;;;;;;;;;;;;;11.70;100.00;98322.25;4758428;30;19982;-67
2022/03/29 09:31:42;;;;;;;;;;;;;;;12.23;100.00;98322.03;4758419;30;19961;-67
2022/03/29 09:34:10;;;;;;;;;;;;;;;12.26;100.00;98318.41;4759332;30;19955;-67
2022/03/29 09:36:43;;;;;;;;;;;;;;;12.31;100.00;98310.38;4758976;30;19953;-67
2022/03/29 09:39:30;;;;;;;;;;;;;;;12.21;100.00;98316.03;4758107;30;19962;-67
2022/03/29 09:41:59;;;;;;;;;;;;;;;12.33;100.00;98313.56;4758891;30;19951;-66
2022/03/29 09:44:35;;;;;;;;;;;;;;;12.52;100.00;98312.25;4772213;30;19953;-67
2022/03/29 09:47:04;;;;;;;;;;;;;;;12.56;100.00;98306.63;4758654;30;19955;-66
2022/03/29 09:50:06;;;;;;;;;;;;;;;12.67;100.00;98312.97;4758134;30;19952;-67
2022/03/29 09:52:37;;;;;;;;;;;;;;;12.31;100.00;98301.16;4745943;30;19974;-67
2022/03/29 09:55:05;;;;;;;;;;;;;;;12.49;100.00;98293.47;4758623;30;19959;-67
2022/03/29 09:57:43;;;;;;;;;;;;;;;12.40;100.00;98296.72;4758329;30;19962;-67
2022/03/29 10:00:12;;;;;;;;;;;;;;;12.55;100.00;98294.59;4757868;30;19954;-67
2022/03/29 10:02:45;;;;;;;;;;;;;;;12.94;100.00;98288.69;4756145;30;19958;-67
2022/03/29 10:05:15;;;;;;;;;;;;;;;13.02;100.00;98291.03;4755890;30;20580;-67
2022/03/29 10:07:44;;;;;;;;;;;;;;;12.63;100.00;98284.94;4757139;30;19957;-67
2022/03/29 10:10:11;;;;;;;;;;;;;;;12.73;100.00;98286.06;4772869;30;19974;-67
2022/03/29 10:12:39;;;;;;;;;;;;;;;12.60;100.00;98276.53;4775115;30;20235;-67
2022/03/29 10:15:23;;;;;;;;;;;;;;;13.15;100.00;98274.53;4775453;30;19952;-67
2022/03/29 10:17:53;;;;;;;;;;;;;;;13.14;100.00;98281.34;4775084;30;19953;-67
2022/03/29 10:20:20;;;;;;;;;;;;;;;13.18;100.00;98271.66;4775355;30;19955;-67
2022/03/29 10:22:47;;;;;;;;;;;;;;;13.09;100.00;98262.94;4776030;30;19952;-67
2022/03/29 10:25:15;;;;;;;;;;;;;;;13.02;100.00;98271.41;4775340;30;19954;-67
2022/03/29 10:27:42;;;;;;;;;;;;;;;13.37;100.00;98267.47;4775351;30;19950;-67
2022/03/29 10:30:10;;;;;;;;;;;;;;;13.62;100.00;98255.97;4775124;30;19954;-67
2022/03/29 10:32:37;;;;;;;;;;;;;;;13.56;100.00;98255.63;4760014;30;20300;-66
2022/03/29 10:35:07;;;;;;;;;;;;;;;13.82;100.00;98245.66;4775059;30;19956;-67
2022/03/29 10:37:50;;;;;;;;;;;;;;;13.79;100.00;98247.31;4775031;30;20349;-67
2022/03/29 10:40:37;;;;;;;;;;;;;;;13.48;100.00;98244.88;4766614;30;20249;-67
2022/03/29 10:43:22;;;;;;;;;;;;;;;13.40;100.00;98241.34;4775455;30;20038;-66
2022/03/29 10:45:51;;;;;;;;;;;;;;;13.64;100.00;98231.84;4773213;30;19957;-67
2022/03/29 10:48:18;;;;;;;;;;;;;;;13.89;100.00;98223.09;4757735;30;19954;-67
2022/03/29 10:50:56;;;;;;;;;;;;;;;13.92;100.00;98222.25;4770717;30;19962;-67
2022/03/29 10:53:25;;;;;;;;;;;;;;;13.41;100.00;98228.09;4755931;30;19971;-67
2022/03/29 10:56:10;;;;;;;;;;;;;;;13.44;100.00;98216.84;4757588;30;19953;-66
2022/03/29 10:59:08;;;;;;;;;;;;;;;13.52;100.00;98218.34;4739403;30;19950;-67
2022/03/29 11:01:37;;;;;;;;;;;;;;;13.73;100.00;98209.66;4720129;30;19946;-67
2022/03/29 11:04:07;;;;;;;;;;;;;;;13.86;100.00;98209.91;4739217;30;19958;-66
2022/03/29 11:06:35;;;;;;;;;;;;;;;13.66;100.00;98206.94;4752049;30;20258;-66
2022/03/29 11:09:07;;;;;;;;;;;;;;;13.55;100.00;98205.47;4740547;30;19947;-67
2022/03/29 11:11:35;;;;;;;;;;;;;;;13.32;100.00;98208.16;4768909;30;19977;-67
2022/03/29 11:14:21;;;;;;;;;;;;;;;13.45;100.00;98207.19;4762126;30;19970;-67
2022/03/29 11:16:49;;;;;;;;;;;;;;;13.70;100.00;98204.06;4774550;30;19981;-67
2022/03/29 11:19:53;;;;;;;;;;;;;;;13.74;100.00;98188.75;4774300;30;19957;-67
2022/03/29 11:22:24;;;;;;;;;;;;;;;13.59;100.00;98184.56;4755176;30;19959;-67
2022/03/29 11:24:52;;;;;;;;;;;;;;;13.72;100.00;98188.38;4771337;30;20037;-67
2022/03/29 11:27:21;;;;;;;;;;;;;;;13.78;100.00;98185.91;4773934;30;19952;-67
2022/03/29 11:29:49;;;;;;;;;;;;;;;13.46;100.00;98189.13;4774107;30;19954;-67
2022/03/29 11:32:17;;;;;;;;;;;;;;;13.57;100.00;98178.53;4774738;30;19967;-67
2022/03/29 11:34:45;;;;;;;;;;;;;;;13.67;100.00;98179.63;4774316;30;20054;-67
2022/03/29 11:37:30;;;;;;;;;;;;;;;13.63;100.00;98174.06;4774299;30;19951;-67
2022/03/29 11:39:59;;;;;;;;;;;;;;;13.71;100.00;98167.13;4773757;30;19959;-66
2022/03/29 11:42:42;;;;;;;;;;;;;;;13.62;100.00;98166.84;4774735;30;20293;-66
2022/03/29 11:45:10;;;;;;;;;;;;;;;13.59;100.00;98166.91;4774380;30;19962;-66
2022/03/29 11:47:38;;;;;;;;;;;;;;;13.62;100.00;98149.97;4773948;30;20258;-67
2022/03/29 11:50:06;;;;;;;;;;;;;;;13.70;100.00;98145.88;4773479;30;19980;-67
2022/03/29 11:52:34;;;;;;;;;;;;;;;13.81;100.00;98140.09;4773949;30;20266;-67
2022/03/29 11:55:13;;;;;;;;;;;;;;;14.13;100.00;98148.06;4774001;30;20360;-67
2022/03/29 11:57:41;;;;;;;;;;;;;;;14.43;100.00;98148.00;4773932;30;19956;-67
2022/03/29 12:00:20;;;;;;;;;;;;;;;14.54;100.00;98133.75;4773390;30;19962;-67
2022/03/29 12:02:47;;;;;;;;;;;;;;;14.65;100.00;98128.72;4774192;30;19954;-67
2022/03/29 12:05:21;;;;;;;;;;;;;;;14.65;100.00;98123.91;4774089;30;19957;-67
2022/03/29 12:07:55;;;;;;;;;;;;;;;14.80;100.00;98110.34;4773899;30;19950;-67
2022/03/29 12:10:27;;;;;;;;;;;;;;;14.40;100.00;98103.84;4773760;30;19980;-67
2022/03/29 12:12:54;;;;;;;;;;;;;;;14.67;100.00;98096.13;4773550;30;19952;-67
2022/03/29 12:15:22;;;;;;;;;;;;;;;14.98;100.00;98091.91;4758571;30;20252;-67
2022/03/29 12:20:47;;;;;;;;;;;;;;;14.71;100.00;98084.81;4772171;30;19952;-67
2022/03/29 12:23:15;;;;;;;;;;;;;;;14.85;100.00;98088.16;4773012;30;19951;-67
2022/03/29 12:25:43;;;;;;;;;;;;;;;14.81;100.00;98075.38;4773966;30;20324;-67
2022/03/29 12:28:13;;;;;;;;;;;;;;;14.77;100.00;98078.22;4757593;30;20246;-67
2022/03/29 12:30:41;;;;;;;;;;;;;;;14.83;100.00;98068.09;4769084;30;20401;-67
2022/03/29 12:33:08;;;;;;;;;;;;;;;14.92;100.00;98057.03;4773775;30;19955;-67
2022/03/29 12:35:36;;;;;;;;;;;;;;;15.13;100.00;98061.44;4773237;30;19947;-66
2022/03/29 12:38:04;;;;;;;;;;;;;;;15.22;100.00;98058.03;4773423;30;19960;-67
2022/03/29 12:40:32;;;;;;;;;;;;;;;15.06;100.00;98062.38;4774302;30;19960;-67
2022/03/29 12:43:04;;;;;;;;;;;;;;;15.02;98.58;98056.03;4773512;30;19951;-67
2022/03/29 12:45:32;;;;;;;;;;;;;;;14.78;100.00;98045.25;4773609;30;19956;-67
2022/03/29 12:48:03;;;;;;;;;;;;;;;14.99;100.00;98042.81;4773220;30;19956;-66
2022/03/29 12:50:31;;;;;;;;;;;;;;;14.69;100.00;98047.84;4773248;30;19959;-66
2022/03/29 12:53:06;;;;;;;;;;;;;;;14.64;100.00;98035.09;4772940;30;20251;-66
2022/03/29 12:55:34;;;;;;;;;;;;;;;14.72;100.00;98030.88;4773735;30;19957;-66
2022/03/29 12:58:03;;;;;;;;;;;;;;;14.87;100.00;98028.59;4772809;30;19957;-67
2022/03/29 13:00:41;;;;;;;;;;;;;;;15.07;99.63;98018.13;4770672;30;19974;-66
2022/03/29 13:03:10;;;;;;;;;;;;;;;15.24;100.00;98022.56;4772856;30;19951;-67
2022/03/29 13:05:55;;;;;;;;;;;;;;;15.51;97.02;98019.59;4765366;30;19967;-67
2022/03/29 13:08:23;;;;;;;;;;;;;;;15.55;94.30;98018.28;4762505;30;19977;-67
2022/03/29 13:10:50;;;;;;;;;;;;;;;15.59;90.85;98012.56;4768390;30;19973;-67
2022/03/29 13:13:28;;;;;;;;;;;;;;;15.52;93.12;97998.63;4768246;30;19969;-67
2022/03/29 13:16:10;;;;;;;;;;;;;;;15.43;94.65;97989.97;4756016;30;19957;-67
2022/03/29 13:18:39;;;;;;;;;;;;;;;15.37;94.67;97983.25;4762885;30;20247;-67
2022/03/29 13:21:20;;;;;;;;;;;;;;;15.36;97.73;97976.03;4767259;30;19952;-66
2022/03/29 13:24:03;;;;;;;;;;;;;;;15.70;95.70;97973.63;4771236;30;20246;-67
2022/03/29 13:26:32;;;;;;;;;;;;;;;15.75;95.63;97965.44;4771892;30;19963;-67
2022/03/29 13:28:59;;;;;;;;;;;;;;;15.74;96.23;97974.34;4771207;30;20366;-67
2022/03/29 13:31:31;;;;;;;;;;;;;;;15.65;98.52;97960.06;4772256;30;19950;-67
2022/03/29 13:34:00;;;;;;;;;;;;;;;15.51;94.16;97961.22;4773177;30;19965;-67
2022/03/29 13:36:27;;;;;;;;;;;;;;;15.65;94.33;97948.78;4772623;30;19954;-66
2022/03/29 13:38:56;;;;;;;;;;;;;;;15.36;95.39;97945.03;4772327;30;19946;-67
2022/03/29 13:41:24;;;;;;;;;;;;;;;15.58;94.09;97935.66;4772781;30;19954;-67
2022/03/29 13:43:52;;;;;;;;;;;;;;;15.72;92.49;97937.34;4771917;30;19951;-67
2022/03/29 13:46:19;;;;;;;;;;;;;;;15.58;94.38;97937.69;4772173;30;19956;-67
2022/03/29 13:49:02;;;;;;;;;;;;;;;15.49;95.68;97920.59;4776009;30;19950;-67
2022/03/29 13:51:31;;;;;;;;;;;;;;;15.52;96.23;97917.72;4775764;30;20260;-67
2022/03/29 13:53:58;;;;;;;;;;;;;;;15.31;96.06;97912.53;4765736;30;20044;-67
2022/03/29 13:56:31;;;;;;;;;;;;;;;15.36;92.99;97905.59;4775282;30;19949;-67
2022/03/29 13:58:59;;;;;;;;;;;;;;;15.57;91.50;97899.47;4774871;30;19959;-67
2022/03/29 14:01:26;;;;;;;;;;;;;;;15.72;93.49;97900.72;4775275;30;19959;-67
2022/03/29 14:03:54;;;;;;;;;;;;;;;15.75;94.52;97894.16;4779400;30;19959;-67
2022/03/29 14:06:21;;;;;;;;;;;;;;;15.69;93.72;97890.31;4774494;30;20368;-67
2022/03/29 14:08:49;;;;;;;;;;;;;;;15.90;92.37;97895.38;4775473;30;19953;-67
2022/03/29 14:11:16;;;;;;;;;;;;;;;15.87;93.03;97893.44;4774979;30;19976;-67
2022/03/29 14:13:44;;;;;;;;;;;;;;;15.84;94.85;97880.25;4775465;30;19956;-67
2022/03/29 14:16:11;;;;;;;;;;;;;;;16.08;89.43;97880.81;4775386;30;19952;-66
2022/03/29 14:18:39;;;;;;;;;;;;;;;16.18;88.87;97874.88;4775232;30;19968;-67
2022/03/29 14:21:06;;;;;;;;;;;;;;;16.17;89.52;97875.31;4775220;30;20345;-67
2022/03/29 14:23:33;;;;;;;;;;;;;;;16.20;89.61;97869.59;4775982;30;19953;-67
2022/03/29 14:26:01;;;;;;;;;;;;;;;16.09;91.01;97869.06;4774649;30;19949;-67
2022/03/29 14:28:30;;;;;;;;;;;;;;;16.07;91.85;97870.75;4766709;30;19953;-67
2022/03/29 14:30:58;;;;;;;;;;;;;;;16.01;92.45;97867.72;4773725;30;19954;-68
2022/03/29 14:33:25;;;;;;;;;;;;;;;16.03;93.63;97856.78;4768676;30;21558;-67
2022/03/29 14:35:54;;;;;;;;;;;;;;;16.03;94.66;97842.66;4773409;30;19973;-66
2022/03/29 14:38:22;;;;;;;;;;;;;;;15.95;94.43;97849.72;4775855;30;19952;-66
2022/03/29 14:40:50;;;;;;;;;;;;;;;15.81;95.07;97840.88;4773450;30;19952;-67
2022/03/29 14:43:17;;;;;;;;;;;;;;;15.74;95.16;97837.03;4774743;30;19949;-67
2022/03/29 14:45:47;;;;;;;;;;;;;;;15.51;94.39;97827.97;4773981;30;20363;-67
2022/03/29 14:48:15;;;;;;;;;;;;;;;15.63;93.14;97827.25;4774376;30;19955;-66
2022/03/29 14:51:05;;;;;;;;;;;;;;;15.74;92.04;97824.94;4775263;30;19946;-66
2022/03/29 14:53:33;;;;;;;;;;;;;;;15.67;92.63;97816.69;4763890;30;19956;-66
2022/03/29 14:56:00;;;;;;;;;;;;;;;15.91;91.26;97820.84;4772864;30;19963;-66
2022/03/29 14:58:28;;;;;;;;;;;;;;;15.91;91.96;97818.03;4772943;30;19956;-67
2022/03/29 15:00:55;;;;;;;;;;;;;;;16.04;89.48;97818.09;4774395;30;19957;-67
2022/03/29 15:03:22;;;;;;;;;;;;;;;16.10;85.30;97814.25;4773421;30;19958;-67
2022/03/29 15:05:50;;;;;;;;;;;;;;;16.13;88.27;97804.13;4772493;30;19951;-67
2022/03/29 15:08:18;;;;;;;;;;;;;;;16.09;88.07;97795.75;4772885;30;19950;-67
2022/03/29 15:10:47;;;;;;;;;;;;;;;16.03;84.28;97793.94;4772940;30;19967;-67
2022/03/29 15:13:14;;;;;;;;;;;;;;;16.05;82.20;97782.97;4770869;30;20360;-67
2022/03/29 15:15:42;;;;;;;;;;;;;;;16.00;84.08;97778.69;4767997;30;19974;-67
2022/03/29 15:18:09;;;;;;;;;;;;;;;15.77;86.95;97778.97;4770250;30;19951;-67
2022/03/29 15:20:37;;;;;;;;;;;;;;;15.77;86.62;97781.78;4770036;30;20481;-67
2022/03/29 15:23:04;;;;;;;;;;;;;;;15.92;82.94;97782.94;4773603;30;19952;-67
2022/03/29 15:25:32;;;;;;;;;;;;;;;15.70;85.28;97787.59;4769218;30;19953;-67
2022/03/29 15:27:59;;;;;;;;;;;;;;;15.87;83.29;97782.72;4769783;30;19954;-66
2022/03/29 15:30:27;;;;;;;;;;;;;;;15.68;83.67;97785.22;4772970;30;19952;-65
2022/03/29 15:32:54;;;;;;;;;;;;;;;15.67;83.81;97789.25;4773755;30;19957;-65
2022/03/29 15:35:22;;;;;;;;;;;;;;;15.72;82.35;97791.53;4773841;30;20352;-67
2022/03/29 15:37:50;;;;;;;;;;;;;;;15.64;84.15;97790.16;4773643;30;19950;-67
2022/03/29 15:40:18;;;;;;;;;;;;;;;15.66;84.51;97787.69;4772530;30;19958;-67
2022/03/29 15:42:46;;;;;;;;;;;;;;;15.81;83.75;97778.84;4774230;30;19948;-67
2022/03/29 15:45:13;;;;;;;;;;;;;;;15.84;79.38;97786.41;4772894;30;19956;-67
2022/03/29 15:47:41;;;;;;;;;;;;;;;15.82;78.53;97784.03;4773421;30;19951;-66
2022/03/29 15:50:08;;;;;;;;;;;;;;;15.61;86.00;97787.44;4773053;30;19950;-66
2022/03/29 15:52:36;;;;;;;;;;;;;;;15.52;85.03;97776.03;4758353;30;19957;-66
2022/03/29 15:55:04;;;;;;;;;;;;;;;15.61;84.64;97767.72;4770317;30;20046;-66
2022/03/29 15:57:33;;;;;;;;;;;;;;;15.59;83.52;97775.81;4773283;30;19950;-66
2022/03/29 16:00:00;;;;;;;;;;;;;;;15.74;83.15;97758.09;4767759;30;19953;-67
2022/03/29 16:02:28;;;;;;;;;;;;;;;15.78;81.68;97769.25;4773671;30;19961;-66
2022/03/29 16:04:55;;;;;;;;;;;;;;;15.71;82.27;97766.63;4773414;30;19960;-66
2022/03/29 16:07:22;;;;;;;;;;;;;;;15.68;83.35;97765.50;4772450;30;19956;-66
2022/03/29 16:09:52;;;;;;;;;;;;;;;15.72;82.88;97771.03;4770071;30;19957;-66
2022/03/29 16:12:20;;;;;;;;;;;;;;;15.69;83.54;97769.09;4771009;30;19954;-66
2022/03/29 16:14:47;;;;;;;;;;;;;;;15.56;85.16;97762.63;4773924;30;19958;-66
2022/03/29 16:17:14;;;;;;;;;;;;;;;15.52;85.60;97759.09;4773312;30;19951;-66
2022/03/29 16:19:42;;;;;;;;;;;;;;;15.57;85.72;97758.56;4773378;30;19967;-66
2022/03/29 16:22:09;;;;;;;;;;;;;;;15.52;85.90;97764.75;4771101;30;20389;-66
2022/03/29 16:24:37;;;;;;;;;;;;;;;15.29;87.37;97759.28;4772442;30;19951;-66
2022/03/29 16:27:25;;;;;;;;;;;;;;;15.27;88.10;97756.91;4768264;30;19947;-66
2022/03/29 16:29:53;;;;;;;;;;;;;;;15.33;87.55;97745.91;4783723;30;19953;-66
2022/03/29 16:32:21;;;;;;;;;;;;;;;15.27;87.35;97750.47;4778145;30;19952;-67
2022/03/29 16:34:48;;;;;;;;;;;;;;;15.19;88.31;97747.06;4768004;30;19957;-67
2022/03/29 16:37:16;;;;;;;;;;;;;;;15.03;90.50;97742.25;4759479;30;19948;-66
2022/03/29 16:39:44;;;;;;;;;;;;;;;14.92;90.28;97732.47;4773926;30;19983;-67
2022/03/29 16:42:12;;;;;;;;;;;;;;;14.82;91.14;97727.88;4758645;30;20249;-67
2022/03/29 16:44:39;;;;;;;;;;;;;;;14.84;90.61;97734.66;4767635;30;20354;-67
2022/03/29 16:47:09;;;;;;;;;;;;;;;14.84;90.08;97728.28;4772763;30;20355;-67
2022/03/29 16:49:37;;;;;;;;;;;;;;;14.87;90.37;97727.38;4773191;30;19951;-67
2022/03/29 16:52:05;;;;;;;;;;;;;;;14.80;90.60;97717.09;4773319;30;20033;-67
2022/03/29 16:54:33;;;;;;;;;;;;;;;14.79;91.34;97720.34;4772408;30;19947;-74
2022/03/29 16:57:01;;;;;;;;;;;;;;;14.78;91.27;97725.19;4770301;30;19965;-67
2022/03/29 16:59:28;;;;;;;;;;;;;;;14.77;91.42;97723.59;4772068;30;19951;-66
2022/03/29 17:01:55;;;;;;;;;;;;;;;14.75;92.75;97722.44;4766448;30;19957;-67
2022/03/29 17:04:23;;;;;;;;;;;;;;;14.74;92.07;97723.69;4772750;30;19959;-67
2022/03/29 17:06:50;;;;;;;;;;;;;;;14.72;92.74;97715.66;4770303;30;19957;-67
2022/03/29 17:09:17;;;;;;;;;;;;;;;14.75;91.94;97714.78;4771063;30;19950;-67
2022/03/29 17:11:45;;;;;;;;;;;;;;;14.71;91.88;97719.72;4771400;30;19973;-67
2022/03/29 17:14:13;;;;;;;;;;;;;;;14.64;92.85;97719.91;4773773;30;19961;-67
2022/03/29 17:16:41;;;;;;;;;;;;;;;14.77;92.04;97728.44;4766130;30;19968;-67
2022/03/29 17:19:09;;;;;;;;;;;;;;;14.71;91.38;97742.25;4778229;30;19953;-67
2022/03/29 17:21:37;;;;;;;;;;;;;;;14.69;91.68;97727.81;4774079;30;20378;-66
2022/03/29 17:24:08;;;;;;;;;;;;;;;14.60;91.60;97724.81;4776671;30;20344;-67
2022/03/29 17:26:36;;;;;;;;;;;;;;;14.61;90.91;97723.59;4780194;30;19956;-67
2022/03/29 17:29:03;;;;;;;;;;;;;;;14.59;92.17;97712.00;4779380;30;19957;-67
2022/03/29 17:31:31;;;;;;;;;;;;;;;14.55;91.85;97707.69;4776925;30;19949;-67
2022/03/29 17:34:00;;;;;;;;;;;;;;;14.49;91.12;97707.41;4770778;30;19970;-67
2022/03/29 17:36:28;;;;;;;;;;;;;;;14.39;92.37;97712.06;4775944;30;19970;-67
2022/03/29 17:38:56;;;;;;;;;;;;;;;14.37;92.10;97716.53;4775550;30;20377;-67
2022/03/29 17:41:23;;;;;;;;;;;;;;;14.36;92.60;97717.75;4767267;30;20253;-66
2022/03/29 17:43:51;;;;;;;;;;;;;;;14.30;93.36;97717.50;4758881;30;19950;-67
2022/03/29 17:46:20;;;;;;;;;;;;;;;14.26;93.38;97715.94;4774374;30;19956;-66
2022/03/29 17:48:49;;;;;;;;;;;;;;;14.21;93.65;97713.63;4774660;30;20023;-67
2022/03/29 17:51:18;;;;;;;;;;;;;;;14.17;93.75;97729.81;4774873;30;19957;-67
2022/03/29 17:53:46;;;;;;;;;;;;;;;14.20;93.11;97723.31;4776102;30;19954;-67
2022/03/29 17:56:13;;;;;;;;;;;;;;;14.22;92.37;97721.66;4776451;30;19965;-67
2022/03/29 17:58:41;;;;;;;;;;;;;;;14.21;92.44;97722.06;4775508;30;20336;-67
2022/03/29 18:01:09;;;;;;;;;;;;;;;14.10;94.32;97722.34;4775969;30;19954;-67
2022/03/29 18:03:37;;;;;;;;;;;;;;;14.04;93.55;97726.06;4774868;30;20286;-67
2022/03/29 18:06:05;;;;;;;;;;;;;;;13.97;93.93;97735.47;4775100;30;19954;-66
2022/03/29 18:08:32;;;;;;;;;;;;;;;13.92;94.62;97740.78;4774586;30;20130;-66
2022/03/29 18:10:59;;;;;;;;;;;;;;;13.84;96.67;97734.53;4763604;30;19974;-66
2022/03/29 18:13:26;;;;;;;;;;;;;;;13.84;96.30;97740.16;4775441;30;19969;-66
2022/03/29 18:15:54;;;;;;;;;;;;;;;13.72;97.62;97743.59;4774436;30;19968;-67
2022/03/29 18:18:21;;;;;;;;;;;;;;;13.65;98.58;97738.94;4776066;30;19953;-66
2022/03/29 18:20:52;;;;;;;;;;;;;;;13.49;99.27;97733.25;4775325;30;19953;-67